createdAt,value
2022-12-14T00:01:41.956Z,12.93
2022-12-14T00:06:46.856Z,12.25
2022-12-14T00:11:48.579Z,14.27
2022-12-14T00:16:50.464Z,13.30
2022-12-14T00:21:52.241Z,13.00
2022-12-14T00:26:55.093Z,12.27
2022-12-14T00:31:56.888Z,12.90
2022-12-14T00:36:58.882Z,13.15
2022-12-14T00:42:00.880Z,11.55
2022-12-14T00:47:02.645Z,11.98
2022-12-14T00:52:04.430Z,11.82
2022-12-14T00:57:06.810Z,12.20
2022-12-14T01:02:08.747Z,14.07
2022-12-14T01:07:10.600Z,12.75
2022-12-14T01:12:12.481Z,12.15
2022-12-14T01:17:14.215Z,11.55
2022-12-14T01:22:16.062Z,12.23
2022-12-14T01:27:17.815Z,12.48
2022-12-14T01:32:19.826Z,10.90
2022-12-14T01:37:21.565Z,11.55
2022-12-14T01:42:23.382Z,10.43
2022-12-14T01:47:36.538Z,10.98
2022-12-14T01:52:45.115Z,12.95
2022-12-14T01:57:56.966Z,11.30
2022-12-14T02:03:25.827Z,12.20
2022-12-14T02:08:28.681Z,10.35
2022-12-14T02:13:37.324Z,10.48
2022-12-14T02:18:39.164Z,11.93
2022-12-14T02:23:55.930Z,9.50
2022-12-14T02:29:00.654Z,10.38
2022-12-14T02:34:15.484Z,11.02
2022-12-14T02:39:32.704Z,10.73
2022-12-14T02:44:51.502Z,11.98
2022-12-14T02:50:24.071Z,11.00
2022-12-14T02:55:40.805Z,10.15
2022-12-14T03:00:44.047Z,10.45
2022-12-14T03:05:58.993Z,10.80
2022-12-14T03:11:04.729Z,10.15
2022-12-14T03:16:13.418Z,10.63
2022-12-14T03:21:19.325Z,10.90
2022-12-14T03:26:47.409Z,10.77
2022-12-14T03:32:03.562Z,10.23
2022-12-14T03:37:13.862Z,10.60
2022-12-14T03:42:22.664Z,10.57
2022-12-14T03:47:43.138Z,10.73
2022-12-14T03:53:08.936Z,11.70
2022-12-14T03:58:57.303Z,11.65
2022-12-14T04:04:11.826Z,11.70
2022-12-14T04:09:51.258Z,11.63
2022-12-14T04:15:17.243Z,11.38
2022-12-14T04:20:45.279Z,10.82
2022-12-14T04:26:06.109Z,11.45
2022-12-14T04:31:14.015Z,11.77
2022-12-14T04:36:24.113Z,11.60
2022-12-14T04:41:31.711Z,9.10
2022-12-14T04:46:40.550Z,11.52
2022-12-14T04:52:12.735Z,12.13
2022-12-14T04:57:31.672Z,11.95
2022-12-14T05:02:51.970Z,11.77
2022-12-14T05:08:08.150Z,11.40
2022-12-14T05:13:31.007Z,12.35
2022-12-14T05:18:35.389Z,11.02
2022-12-14T05:23:37.133Z,12.98
2022-12-14T05:28:38.835Z,11.05
2022-12-14T05:33:40.584Z,11.63
2022-12-14T05:38:42.358Z,12.57
2022-12-14T05:43:44.148Z,12.48
2022-12-14T05:48:49.181Z,11.93
2022-12-14T05:53:51.655Z,12.63
2022-12-14T05:58:53.411Z,11.98
2022-12-14T06:03:55.236Z,12.07
2022-12-14T06:08:57.061Z,10.68
2022-12-14T06:13:58.836Z,12.05
2022-12-14T06:19:01.823Z,13.40
2022-12-14T06:24:04.935Z,11.05
2022-12-14T06:29:07.702Z,12.15
2022-12-14T06:34:10.994Z,11.98
2022-12-14T06:39:15.044Z,12.93
2022-12-14T06:44:16.822Z,12.38
2022-12-14T06:49:18.591Z,12.63
2022-12-14T06:54:20.347Z,13.60
2022-12-14T06:59:23.260Z,14.25
2022-12-14T07:04:25.098Z,12.52
2022-12-14T07:09:26.894Z,12.50
2022-12-14T07:14:28.632Z,12.07
2022-12-14T07:19:30.394Z,13.68
2022-12-14T07:24:32.458Z,12.00
2022-12-14T07:29:34.958Z,12.57
2022-12-14T07:34:36.927Z,12.45
2022-12-14T07:39:38.800Z,14.45
2022-12-14T07:44:40.564Z,12.90
2022-12-14T07:49:42.336Z,13.95
2022-12-14T07:54:44.079Z,13.88
2022-12-14T07:59:45.870Z,14.00
2022-12-14T08:04:47.688Z,14.43
2022-12-14T08:09:49.650Z,14.25
2022-12-14T08:14:51.876Z,12.38
2022-12-14T08:19:53.621Z,13.38
2022-12-14T08:24:56.210Z,13.45
2022-12-14T08:29:58.851Z,13.95
2022-12-14T08:35:01.063Z,13.40
2022-12-14T08:40:03.941Z,14.68
2022-12-14T08:45:06.510Z,14.48
2022-12-14T08:50:08.837Z,14.25
2022-12-14T08:55:10.602Z,13.75
2022-12-14T09:00:12.867Z,14.57
2022-12-14T09:05:14.693Z,14.10
2022-12-14T09:10:19.557Z,13.02
2022-12-14T09:15:21.372Z,14.43
2022-12-14T09:20:23.652Z,14.63
2022-12-14T09:25:25.599Z,13.63
2022-12-14T09:30:27.457Z,15.38
2022-12-14T09:35:29.363Z,14.02
2022-12-14T09:40:33.036Z,13.75
2022-12-14T09:45:48.690Z,13.50
2022-12-14T09:50:53.117Z,15.32
2022-12-14T09:55:57.512Z,14.13
2022-12-14T10:01:22.329Z,15.13
2022-12-14T10:06:46.786Z,13.90
2022-12-14T10:12:04.147Z,13.77
2022-12-14T10:17:20.999Z,15.88
2022-12-14T10:22:35.819Z,14.75
2022-12-14T10:28:09.179Z,15.02
2022-12-14T10:33:23.182Z,15.13
2022-12-14T10:38:39.375Z,14.20
2022-12-14T10:43:59.128Z,14.40
2022-12-14T10:49:25.378Z,10.47
2022-12-14T10:54:46.278Z,12.55
2022-12-14T11:00:05.737Z,15.20
2022-12-14T11:05:58.194Z,13.98
2022-12-14T11:11:18.702Z,10.85
2022-12-14T11:16:36.687Z,15.68
2022-12-14T11:21:39.344Z,14.80
2022-12-14T11:26:42.801Z,15.00
2022-12-14T11:31:46.949Z,15.88
2022-12-14T11:36:50.026Z,14.38
2022-12-14T11:41:58.018Z,14.68
2022-12-14T11:47:00.104Z,14.10
2022-12-14T11:52:20.085Z,13.10
2022-12-14T11:57:28.321Z,9.15
2022-12-14T12:02:37.774Z,13.77
2022-12-14T12:07:44.720Z,13.10
2022-12-14T12:13:00.732Z,14.05
2022-12-14T12:18:17.433Z,13.05
2022-12-14T12:23:30.419Z,13.63
2022-12-14T12:28:36.113Z,15.00
2022-12-14T12:33:52.471Z,15.05
2022-12-14T12:39:05.924Z,14.60
2022-12-14T12:44:29.614Z,14.68
2022-12-14T12:49:32.047Z,14.93
2022-12-14T12:54:41.874Z,14.15
2022-12-14T12:59:48.698Z,10.63
2022-12-14T13:04:52.908Z,14.82
2022-12-14T13:10:14.348Z,14.90
2022-12-14T13:15:32.803Z,14.45
2022-12-14T13:20:35.094Z,14.23
2022-12-14T13:25:48.410Z,13.88
2022-12-14T13:30:59.258Z,12.55
2022-12-14T13:36:17.411Z,13.93
2022-12-14T13:41:50.827Z,12.25
2022-12-14T13:47:02.476Z,13.35
2022-12-14T13:52:04.812Z,13.73
2022-12-14T13:57:13.922Z,12.70
2022-12-14T14:02:27.903Z,13.45
2022-12-14T14:07:29.759Z,13.32
2022-12-14T14:12:43.945Z,12.75
2022-12-14T14:17:48.508Z,14.05
2022-12-14T14:23:18.196Z,13.95
2022-12-14T14:28:23.174Z,14.73
2022-12-14T14:33:49.863Z,13.55
2022-12-14T14:38:52.849Z,13.23
2022-12-14T14:43:58.852Z,13.13
2022-12-14T14:49:00.840Z,14.02
2022-12-14T14:59:56.921Z,13.90
2022-12-14T15:05:17.450Z,13.80
2022-12-14T15:10:42.712Z,13.73
2022-12-14T15:15:51.284Z,14.07
2022-12-14T15:21:01.218Z,14.73
2022-12-14T15:26:16.081Z,10.68
2022-12-14T15:31:28.157Z,14.10
2022-12-14T15:36:35.383Z,14.30
2022-12-14T15:41:37.141Z,14.38
2022-12-14T15:46:40.319Z,14.50
2022-12-14T15:51:44.177Z,14.32
2022-12-14T15:56:48.919Z,14.68
2022-12-14T16:02:04.793Z,14.48
2022-12-14T16:07:30.252Z,14.40
2022-12-14T16:12:46.964Z,14.70
2022-12-14T16:17:53.666Z,15.80
2022-12-14T16:28:26.321Z,15.80
2022-12-14T16:33:29.476Z,15.90
2022-12-14T16:38:35.496Z,16.10
2022-12-14T16:43:41.787Z,14.65
2022-12-14T16:48:46.084Z,17.48
2022-12-14T16:53:58.519Z,17.00
2022-12-14T16:59:03.786Z,16.90
2022-12-14T17:04:06.975Z,16.52
2022-12-14T17:09:21.891Z,15.77
2022-12-14T17:14:26.807Z,18.90
2022-12-14T17:19:37.987Z,18.15
2022-12-14T17:24:42.800Z,21.33
2022-12-14T17:29:45.086Z,20.27
2022-12-14T17:34:47.212Z,21.10
2022-12-14T17:39:49.592Z,23.20
2022-12-14T17:44:56.028Z,25.63
2022-12-14T17:49:57.758Z,24.90
2022-12-14T17:54:59.982Z,25.63
2022-12-14T18:00:20.278Z,24.23
2022-12-14T18:05:22.320Z,23.33
2022-12-14T18:10:24.283Z,24.40
2022-12-14T18:15:31.176Z,26.98
2022-12-14T18:20:33.593Z,28.38
2022-12-14T18:25:44.401Z,27.42
2022-12-14T18:31:20.680Z,28.38
2022-12-14T18:36:23.603Z,25.70
2022-12-14T18:41:26.693Z,26.85
2022-12-14T18:46:28.673Z,26.52
2022-12-14T18:51:30.574Z,29.70
2022-12-14T18:56:32.892Z,27.20
2022-12-14T19:01:35.112Z,28.65
2022-12-14T19:06:45.443Z,27.17
2022-12-14T19:11:47.675Z,29.45
2022-12-14T19:16:49.488Z,31.77
2022-12-14T19:21:51.506Z,29.52
2022-12-14T19:26:53.261Z,26.85
2022-12-14T19:31:58.015Z,28.08
2022-12-14T19:37:02.156Z,26.25
2022-12-14T19:42:04.067Z,25.58
2022-12-14T19:47:06.092Z,24.60
2022-12-14T19:52:08.142Z,25.15
2022-12-14T19:57:10.849Z,25.75
2022-12-14T20:02:14.492Z,26.85
2022-12-14T20:07:16.443Z,25.30
2022-12-14T20:12:18.334Z,26.48
2022-12-14T20:17:20.135Z,22.75
2022-12-14T20:22:22.113Z,24.10
2022-12-14T20:27:23.905Z,24.23
2022-12-14T20:32:25.673Z,23.00
2022-12-14T20:37:27.562Z,22.77
2022-12-14T20:42:29.457Z,23.63
2022-12-14T20:47:31.262Z,19.17
2022-12-14T20:52:33.087Z,20.10
2022-12-14T20:57:34.904Z,22.42
2022-12-14T21:02:36.784Z,20.85
2022-12-14T21:07:38.683Z,23.35
2022-12-14T21:12:40.458Z,21.75
2022-12-14T21:17:42.481Z,21.48
2022-12-14T21:22:44.256Z,21.98
2022-12-14T21:27:46.036Z,22.75
2022-12-14T21:32:47.832Z,24.38
2022-12-14T21:37:51.194Z,23.15
2022-12-14T21:42:52.978Z,27.48
2022-12-14T21:47:54.930Z,22.80
2022-12-14T21:52:56.690Z,22.45
2022-12-14T21:58:16.737Z,24.58
2022-12-14T22:03:18.525Z,19.58
2022-12-14T22:08:20.302Z,23.15
2022-12-14T22:13:22.026Z,23.77
2022-12-14T22:18:24.138Z,23.52
2022-12-14T22:23:25.910Z,27.17
2022-12-14T22:28:27.636Z,25.63
2022-12-14T22:33:30.792Z,25.98
2022-12-14T22:38:32.872Z,28.98
2022-12-14T22:43:37.282Z,25.70
2022-12-14T22:48:40.239Z,25.58
2022-12-14T22:53:42.909Z,23.52
2022-12-14T22:59:13.299Z,22.33
2022-12-14T23:04:15.200Z,22.88
2022-12-14T23:09:35.519Z,22.05
2022-12-14T23:15:04.103Z,24.50
2022-12-14T23:20:30.617Z,25.45
2022-12-14T23:25:53.569Z,23.85
2022-12-14T23:31:16.372Z,23.20
2022-12-14T23:36:36.543Z,22.25
2022-12-14T23:47:17.212Z,17.17
2022-12-14T23:52:37.703Z,22.50
2022-12-14T23:57:58.150Z,24.23
